Time;durP1;ratioP1;P1;durP2;ratioP2;P2;SDS_P1;SDS_P2;PMS_P1;PMS_P2;Temp;Humidity;BMP_temperature;BMP_pressure;BME280_temperature;BME280_humidity;BME280_pressure;Samples;Min_cycle;Max_cycle;Signal;HPM_P1;HPM_P2
2023/12/31 07:44:32;;;;;;;8.20;2.78;;;7.70;99.90;;;;;;4993900;28;20082;-86
2023/12/31 07:46:58;;;;;;;7.50;2.50;;;8.60;99.90;;;;;;4977783;28;20061;-87
2023/12/31 07:49:36;;;;;;;6.90;2.50;;;8.90;99.90;;;;;;4978709;28;20570;-88
2023/12/31 07:52:10;;;;;;;7.10;2.40;;;7.80;99.90;;;;;;4978097;28;20050;-86
2023/12/31 07:54:40;;;;;;;7.30;2.47;;;8.50;99.90;;;;;;4977454;28;20065;-86
2023/12/31 07:57:15;;;;;;;7.83;2.60;;;7.40;99.90;;;;;;4978991;28;20046;-86
2023/12/31 07:59:40;;;;;;;7.73;2.47;;;9.20;99.90;;;;;;4980266;28;20046;-86
2023/12/31 08:02:15;;;;;;;8.43;2.40;;;9.10;99.90;;;;;;4978302;28;20038;-86
2023/12/31 08:04:41;;;;;;;7.73;2.70;;;9.00;99.90;;;;;;5000226;23;20093;-87
2023/12/31 08:07:09;;;;;;;7.50;2.53;;;7.90;99.90;;;;;;4989208;28;20074;-85
2023/12/31 08:09:36;;;;;;;6.90;2.43;;;9.20;99.90;;;;;;4989642;28;20056;-86
2023/12/31 08:12:02;;;;;;;8.70;3.17;;;7.70;99.90;;;;;;4984350;28;20042;-86
2023/12/31 08:14:28;;;;;;;7.97;2.60;;;8.00;99.90;;;;;;4992857;23;20113;-84
2023/12/31 08:17:00;;;;;;;7.30;2.53;;;8.30;99.90;;;;;;4964697;28;20070;-85
2023/12/31 08:19:36;;;;;;;8.05;2.53;;;8.20;99.90;;;;;;4976640;28;20073;-84
2023/12/31 08:22:08;;;;;;;7.70;2.20;;;9.10;99.90;;;;;;4964544;28;20047;-85
2023/12/31 08:24:34;;;;;;;8.40;2.57;;;7.80;99.90;;;;;;4977433;28;20138;-85
2023/12/31 08:26:59;;;;;;;8.13;2.57;;;8.10;99.90;;;;;;5035167;23;20136;-86
2023/12/31 08:29:33;;;;;;;8.07;2.50;;;8.50;99.90;;;;;;5015964;28;20038;-85
2023/12/31 08:32:18;;;;;;;8.30;2.70;;;8.30;99.90;;;;;;5015468;28;20053;-84
2023/12/31 08:34:46;;;;;;;6.88;2.40;;;8.20;99.90;;;;;;5016675;28;20077;-86
2023/12/31 08:37:15;;;;;;;7.07;2.38;;;9.20;99.90;;;;;;5035451;23;20052;-85
2023/12/31 08:40:47;;;;;;;7.10;2.22;;;9.60;99.90;;;;;;5012925;28;20049;-86
2023/12/31 08:44:11;;;;;;;7.47;2.45;;;9.20;99.90;;;;;;5010899;28;20057;-85
2023/12/31 08:46:36;;;;;;;8.23;2.40;;;7.00;99.90;;;;;;5012463;28;20435;-87
2023/12/31 08:49:02;;;;;;;8.75;2.42;;;8.60;99.90;;;;;;5012275;28;20061;-85
2023/12/31 08:51:28;;;;;;;7.07;1.95;;;8.30;99.90;;;;;;5001641;28;20046;-85
2023/12/31 08:54:20;;;;;;;6.25;2.20;;;8.30;99.90;;;;;;5011127;28;20048;-87
2023/12/31 08:57:25;;;;;;;6.30;2.40;;;8.50;99.90;;;;;;4978932;28;20069;-86
2023/12/31 09:00:00;;;;;;;;;;;8.80;99.90;;;;;;5000542;28;20050;-86
2023/12/31 09:02:35;;;;;;;7.20;2.33;;;8.50;99.90;;;;;;5227618;23;20336;-85
2023/12/31 09:05:16;;;;;;;6.10;2.10;;;8.50;99.90;;;;;;4995105;28;20088;-85
2023/12/31 09:07:51;;;;;;;7.55;2.30;;;8.40;99.90;;;;;;4995017;28;20501;-85
2023/12/31 09:10:29;;;;;;;7.68;2.05;;;8.30;99.90;;;;;;4977207;28;20518;-86
2023/12/31 09:13:03;;;;;;;7.28;2.22;;;8.40;99.90;;;;;;4991293;28;20042;-86
2023/12/31 09:15:29;;;;;;;7.13;2.07;;;8.30;99.90;;;;;;4996725;28;20038;-85
2023/12/31 09:17:55;;;;;;;8.25;2.53;;;8.50;99.90;;;;;;4991631;28;20056;-86
2023/12/31 09:20:36;;;;;;;8.38;2.67;;;8.50;99.90;;;;;;4975596;28;20042;-86
2023/12/31 09:23:08;;;;;;;10.07;3.10;;;10.10;99.90;;;;;;4992827;28;20045;-86
2023/12/31 09:26:08;;;;;;;9.80;3.40;;;10.00;99.90;;;;;;4996139;28;20482;-86
2023/12/31 09:28:44;;;;;;;11.18;3.72;;;8.60;99.90;;;;;;4995919;28;20052;-85
2023/12/31 09:31:35;;;;;;;8.63;2.80;;;8.70;99.90;;;;;;4995975;28;20140;-86
2023/12/31 09:34:19;;;;;;;8.60;2.90;;;9.80;99.90;;;;;;4992211;28;20058;-86
2023/12/31 09:36:45;;;;;;;;;;;8.90;99.90;;;;;;4987463;28;20058;-85
2023/12/31 09:39:11;;;;;;;9.67;2.43;;;8.60;99.90;;;;;;4995666;28;20467;-86
2023/12/31 09:42:01;;;;;;;7.30;2.40;;;9.90;99.90;;;;;;4989025;28;20073;-86
2023/12/31 09:44:27;;;;;;;6.78;2.30;;;8.90;99.90;;;;;;4988204;28;20042;-87
2023/12/31 09:50:34;;;;;;;8.30;2.40;;;9.80;99.90;;;;;;5011949;28;20054;-87
2023/12/31 09:53:04;;;;;;;6.77;2.33;;;8.00;99.90;;;;;;4987661;28;20046;-89
2023/12/31 09:55:45;;;;;;;7.18;2.22;;;8.90;99.90;;;;;;4987408;28;20047;-87
2023/12/31 09:58:11;;;;;;;7.47;2.50;;;9.10;99.90;;;;;;4991966;28;20465;-85
2023/12/31 10:00:46;;;;;;;7.20;2.30;;;10.20;99.90;;;;;;4982396;28;20056;-86
2023/12/31 10:03:22;;;;;;;7.40;2.50;;;9.70;99.90;;;;;;4976120;28;20081;-85
2023/12/31 10:06:09;;;;;;;6.10;2.25;;;10.30;99.90;;;;;;4992636;28;20065;-87
2023/12/31 10:08:57;;;;;;;7.40;2.33;;;10.30;99.90;;;;;;4975820;28;20038;-86
2023/12/31 10:11:24;;;;;;;7.22;2.50;;;9.00;99.90;;;;;;4975575;28;20058;-86
2023/12/31 10:14:28;;;;;;;7.78;2.47;;;9.40;99.90;;;;;;4975192;28;20133;-87
2023/12/31 10:17:16;;;;;;;;;;;10.50;99.90;;;;;;4936602;29;20479;-85
2023/12/31 10:19:42;;;;;;;9.23;2.85;;;9.20;99.90;;;;;;4952572;29;19922;-86
2023/12/31 10:26:08;;;;;;;8.13;2.75;;;9.90;99.90;;;;;;4993739;28;20116;-86
2023/12/31 10:29:05;;;;;;;8.55;3.50;;;9.90;99.90;;;;;;4982619;23;20058;-87
2023/12/31 10:31:34;;;;;;;8.10;2.70;;;9.20;99.90;;;;;;5011840;23;20429;-87
2023/12/31 10:34:16;;;;;;;8.30;2.65;;;9.30;99.90;;;;;;5016932;28;20092;-87
2023/12/31 10:36:48;;;;;;;10.98;2.67;;;10.70;99.90;;;;;;4997276;28;20409;-88
2023/12/31 10:40:33;;;;;;;7.22;2.40;;;10.90;99.90;;;;;;5002828;23;20042;-89
2023/12/31 10:45:46;;;;;;;7.38;2.65;;;9.70;99.90;;;;;;4996110;28;20062;-88
2023/12/31 10:50:42;;;;;;;8.00;3.17;;;9.80;99.90;;;;;;5211736;23;20085;-87
2023/12/31 10:54:20;;;;;;;8.57;3.22;;;9.80;99.90;;;;;;5017860;23;20502;-87
2023/12/31 11:06:36;;;;;;;7.95;2.95;;;8.80;99.90;;;;;;5019740;23;20156;-89
2023/12/31 11:24:20;;;;;;;8.13;2.90;;;8.30;99.90;;;;;;5017708;28;20072;-87
2023/12/31 11:27:26;;;;;;;8.32;2.88;;;9.30;99.90;;;;;;4986190;28;20050;-88
2023/12/31 11:29:52;;;;;;;8.13;2.90;;;9.20;99.90;;;;;;5031074;23;20081;-87
2023/12/31 11:32:20;;;;;;;8.13;2.78;;;9.00;99.90;;;;;;5017134;28;20053;-86
2023/12/31 11:37:44;;;;;;;8.32;3.22;;;10.40;99.90;;;;;;5183584;23;20049;-85
2023/12/31 11:41:11;;;;;;;;;;;;;;;;;;;;;
2023/12/31 11:46:46;;;;;;;12.68;4.38;;;10.20;99.90;;;;;;4974248;28;20051;-84
2023/12/31 11:52:48;;;;;;;7.43;2.40;;;9.10;99.90;;;;;;4973126;28;20378;-86
2023/12/31 11:55:42;;;;;;;8.35;3.17;;;9.30;99.90;;;;;;4987025;23;20053;-87
2023/12/31 12:00:55;;;;;;;7.45;2.58;;;10.70;99.90;;;;;;4994132;28;20136;-87
2023/12/31 12:03:39;;;;;;;8.35;2.75;;;10.70;99.90;;;;;;4994031;28;20486;-87
2023/12/31 12:09:19;;;;;;;7.18;2.58;;;9.40;99.90;;;;;;5021425;23;20439;-86
2023/12/31 12:12:00;;;;;;;6.68;2.28;;;9.00;99.90;;;;;;4997499;28;20071;-87
2023/12/31 12:17:03;;;;;;;8.23;2.47;;;9.40;99.90;;;;;;5073659;23;20033;-88
2023/12/31 12:24:05;;;;;;;7.40;2.42;;;10.20;99.90;;;;;;4990456;28;20053;-86
2023/12/31 12:26:58;;;;;;;7.22;2.30;;;9.40;99.90;;;;;;4982124;28;20042;-90
2023/12/31 12:29:30;;;;;;;12.68;2.83;;;9.60;99.90;;;;;;5279100;23;20045;-88
2023/12/31 12:32:28;;;;;;;9.35;2.30;;;11.00;99.90;;;;;;5015050;28;20077;-89
2023/12/31 12:35:08;;;;;;;7.53;2.50;;;9.70;99.90;;;;;;5015758;28;20084;-93
2023/12/31 12:37:45;;;;;;;6.97;2.28;;;9.70;99.90;;;;;;5021212;28;20052;-89
2023/12/31 12:40:19;;;;;;;7.05;2.30;;;9.80;99.90;;;;;;5015800;28;20045;-87
2023/12/31 12:43:04;;;;;;;8.00;2.42;;;11.40;99.90;;;;;;5015501;28;20493;-87
2023/12/31 12:46:10;;;;;;;5.43;1.90;;;9.80;99.90;;;;;;5016327;28;20057;-88
2023/12/31 12:51:48;;;;;;;5.57;1.65;;;9.80;99.90;;;;;;5092313;23;20057;-87
2023/12/31 12:54:14;;;;;;;5.72;1.77;;;9.80;99.90;;;;;;4986130;28;20478;-86
2023/12/31 12:56:44;;;;;;;5.10;1.75;;;11.30;99.90;;;;;;4985026;28;20057;-86
2023/12/31 12:59:13;;;;;;;9.98;2.13;;;9.70;99.90;;;;;;4987014;28;20042;-87
2023/12/31 13:01:54;;;;;;;6.03;1.60;;;10.50;99.90;;;;;;4981249;28;20046;-87
2023/12/31 13:04:31;;;;;;;4.38;1.60;;;9.70;99.90;;;;;;4985463;28;20081;-86
2023/12/31 13:06:57;;;;;;;7.05;1.63;;;10.60;99.90;;;;;;4987055;28;20050;-88
2023/12/31 13:09:39;;;;;;;7.60;1.88;;;9.20;99.90;;;;;;4986894;28;20125;-87
2023/12/31 13:12:06;;;;;;;6.32;2.00;;;9.00;99.90;;;;;;4986623;28;20077;-87
2023/12/31 13:15:35;;;;;;;5.88;1.60;;;8.90;99.90;;;;;;4987317;28;20400;-87
2023/12/31 13:24:47;;;;;;;8.27;3.17;;;8.90;99.90;;;;;;4996793;28;20150;-87
2023/12/31 13:27:35;;;;;;;8.90;3.70;;;9.60;99.90;;;;;;4978568;28;20125;-88
2023/12/31 13:30:01;;;;;;;7.63;3.45;;;9.30;99.90;;;;;;4986295;28;20407;-88
2023/12/31 13:36:50;;;;;;;12.07;6.25;;;8.80;99.90;;;;;;4988016;28;20045;-88
2023/12/31 13:39:42;;;;;;;10.23;5.03;;;8.60;99.90;;;;;;4943376;29;20051;-88
2023/12/31 13:42:30;;;;;;;11.88;6.10;;;8.60;99.90;;;;;;4942782;29;20392;-88
2023/12/31 13:45:15;;;;;;;;;;;;;;;;;;;;;
2023/12/31 13:48:17;;;;;;;;;;;;;;;;;;;;;
2023/12/31 13:50:56;;;;;;;10.60;4.90;;;8.40;99.90;;;;;;4952478;29;20063;-89
2023/12/31 13:57:11;;;;;;;8.33;3.57;;;7.80;99.90;;;;;;4991694;28;20576;-88
2023/12/31 13:59:42;;;;;;;11.50;7.47;;;10.00;99.90;;;;;;4984071;28;20042;-88
2023/12/31 14:02:11;;;;;;;16.85;11.75;;;9.80;99.90;;;;;;4984883;28;20053;-88
2023/12/31 14:07:15;;;;;;;10.63;4.90;;;8.40;99.90;;;;;;5047410;23;20061;-85
2023/12/31 14:09:44;;;;;;;12.45;5.50;;;8.60;99.90;;;;;;5013856;28;20371;-89
2023/12/31 14:15:11;;;;;;;9.02;4.38;;;8.40;99.90;;;;;;5117393;23;20057;-86
2023/12/31 14:17:37;;;;;;;13.68;8.32;;;9.70;99.90;;;;;;4965765;23;20052;-87
2023/12/31 14:20:54;;;;;;;13.13;5.88;;;8.50;99.90;;;;;;5021526;28;20049;-88
2023/12/31 14:23:30;;;;;;;11.23;4.10;;;8.20;99.90;;;;;;5021900;28;20046;-89
2023/12/31 14:26:40;;;;;;;24.95;15.70;;;7.50;99.90;;;;;;5027472;28;20561;-90
2023/12/31 14:29:06;;;;;;;20.90;13.77;;;8.60;99.90;;;;;;5036896;28;20045;-96
2023/12/31 14:31:38;;;;;;;21.45;14.98;;;9.80;99.90;;;;;;5035078;28;20072;-92
2023/12/31 14:34:20;;;;;;;10.15;3.20;;;;;;;;;;5034108;28;20056;-90
2023/12/31 14:37:07;;;;;;;9.90;3.67;;;8.50;99.90;;;;;;5032084;28;20406;-88
2023/12/31 14:39:48;;;;;;;9.13;3.25;;;9.60;99.90;;;;;;5032912;28;20045;-88
2023/12/31 14:46:04;;;;;;;56.30;48.27;;;8.50;99.90;;;;;;5031742;28;20055;-88
2023/12/31 14:48:39;;;;;;;35.67;22.77;;;9.60;99.90;;;;;;5032488;28;20124;-88
2023/12/31 14:51:17;;;;;;;124.97;84.97;;;9.70;99.90;;;;;;5010319;23;20050;-88
2023/12/31 14:53:43;;;;;;;18.97;11.70;;;10.10;99.90;;;;;;4999376;28;20113;-88
2023/12/31 14:56:12;;;;;;;25.00;17.37;;;8.80;99.90;;;;;;5002138;28;20073;-89
2023/12/31 14:58:37;;;;;;;19.97;12.10;;;8.60;99.90;;;;;;5000485;28;20053;-88
2023/12/31 15:01:09;;;;;;;11.73;4.83;;;10.10;99.90;;;;;;5000423;28;20053;-89
2023/12/31 15:03:48;;;;;;;59.33;34.40;;;9.70;99.90;;;;;;5002334;28;20169;-89
2023/12/31 15:06:14;;;;;;;25.57;14.10;;;10.10;99.90;;;;;;5002906;28;20501;-89
2023/12/31 15:11:08;;;;;;;42.13;32.53;;;8.60;99.90;;;;;;4994792;28;20053;-88
2023/12/31 15:13:35;;;;;;;27.67;17.23;;;9.40;99.90;;;;;;5006203;23;20057;-88
2023/12/31 15:16:01;;;;;;;47.45;29.00;;;10.00;99.90;;;;;;5035341;28;20049;-88
2023/12/31 15:18:31;;;;;;;41.10;25.80;;;10.10;99.90;;;;;;5018244;28;20091;-88
2023/12/31 15:21:14;;;;;;;42.47;32.67;;;9.50;99.90;;;;;;5018744;28;20107;-87
2023/12/31 15:23:43;;;;;;;13.50;5.15;;;9.60;99.90;;;;;;5018996;28;20053;-88
2023/12/31 15:26:27;;;;;;;12.23;4.75;;;9.60;99.90;;;;;;5017330;28;20103;-88
2023/12/31 15:31:49;;;;;;;12.55;5.70;;;8.30;99.90;;;;;;5040406;23;20057;-88
2023/12/31 15:34:15;;;;;;;10.60;4.70;;;8.20;99.90;;;;;;5045236;23;20045;-85
2023/12/31 15:37:34;;;;;;;12.90;4.95;;;9.60;99.90;;;;;;5021110;28;20045;-90
2023/12/31 15:40:02;;;;;;;9.40;3.93;;;7.70;99.90;;;;;;5012667;28;20498;-88
2023/12/31 15:49:05;;;;;;;;;;;;;;;;;;;;;
2023/12/31 15:52:21;;;;;;;12.70;5.60;;;8.00;99.90;;;;;;4879674;29;20053;-87
2023/12/31 15:54:47;;;;;;;10.60;3.57;;;7.80;99.90;;;;;;4864228;29;20053;-88
2023/12/31 15:57:31;;;;;;;10.10;3.80;;;9.10;99.90;;;;;;4864415;29;20084;-88
2023/12/31 16:00:03;;;;;;;13.30;6.38;;;9.10;99.90;;;;;;4892443;29;20062;-93
2023/12/31 16:02:32;;;;;;;12.27;6.93;;;7.60;99.90;;;;;;4964137;28;20084;-93
2023/12/31 16:07:44;;;;;;;12.45;6.45;;;7.60;99.90;;;;;;5000726;23;20050;-91
2023/12/31 16:10:16;;;;;;;12.07;5.13;;;9.00;99.90;;;;;;4980544;28;20061;-92
2023/12/31 16:12:54;;;;;;;11.60;4.30;;;8.80;99.90;;;;;;4987562;28;20135;-92
2023/12/31 16:15:39;;;;;;;13.33;4.13;;;6.30;99.90;;;;;;5001812;28;20034;-91
2023/12/31 16:18:05;;;;;;;12.33;3.40;;;7.40;99.90;;;;;;5002241;28;20048;-92
2023/12/31 16:20:40;;;;;;;11.27;3.80;;;7.40;99.90;;;;;;4994574;28;20462;-92
2023/12/31 16:23:13;;;;;;;18.60;8.50;;;7.50;99.90;;;;;;4981439;28;20077;-93
2023/12/31 16:25:42;;;;;;;16.40;7.70;;;7.30;99.90;;;;;;4980326;28;20038;-92
2023/12/31 16:28:15;;;;;;;19.23;7.67;;;8.80;99.90;;;;;;4977074;28;20050;-92
2023/12/31 16:31:25;;;;;;;13.15;5.20;;;8.80;99.90;;;;;;4980140;28;20042;-92
2023/12/31 16:35:00;;;;;;;17.63;8.20;;;8.50;99.90;;;;;;4985226;28;20093;-92
2023/12/31 16:37:41;;;;;;;15.47;6.03;;;6.70;99.90;;;;;;4952345;28;20061;-92
2023/12/31 16:40:37;;;;;;;21.93;9.77;;;7.90;99.90;;;;;;4976684;28;20077;-91
2023/12/31 16:43:07;;;;;;;11.30;5.03;;;7.40;99.90;;;;;;4964722;28;20047;-93
2023/12/31 16:45:38;;;;;;;14.07;4.90;;;7.50;99.90;;;;;;5173732;23;20053;-92
2023/12/31 16:48:16;;;;;;;12.43;3.70;;;9.10;99.90;;;;;;5028952;23;20057;-93
2023/12/31 17:02:19;;;;;;;17.73;8.70;;;7.80;99.90;;;;;;4915999;29;20056;-92
2023/12/31 17:04:48;;;;;;;12.13;3.63;;;8.30;99.90;;;;;;4899938;29;20561;-93
2023/12/31 17:09:49;;;;;;;22.67;13.53;;;7.80;99.90;;;;;;5845387;23;20065;-92
2023/12/31 17:12:18;;;;;;;28.40;15.80;;;7.90;99.90;;;;;;5017227;28;20041;-94
2023/12/31 17:14:50;;;;;;;31.67;19.27;;;7.70;99.90;;;;;;5019623;28;20041;-93
2023/12/31 17:17:15;;;;;;;22.20;9.47;;;8.60;99.90;;;;;;5017278;28;20045;-93
2023/12/31 17:19:41;;;;;;;12.43;4.07;;;7.90;99.90;;;;;;5016112;28;20049;-94
2023/12/31 17:22:07;;;;;;;17.17;6.43;;;9.00;99.90;;;;;;5016315;28;20095;-93
2023/12/31 17:24:46;;;;;;;17.70;10.10;;;8.60;99.90;;;;;;5016498;28;20053;-93
2023/12/31 17:27:18;;;;;;;22.37;10.47;;;8.20;99.90;;;;;;5016502;28;20481;-93
2023/12/31 17:30:00;;;;;;;17.97;7.43;;;7.70;99.90;;;;;;5017023;28;20049;-95
2023/12/31 17:32:46;;;;;;;17.77;8.43;;;9.10;99.90;;;;;;5016437;28;20393;-94
2023/12/31 17:35:30;;;;;;;20.92;8.10;;;9.10;99.90;;;;;;5016339;28;20489;-94
2023/12/31 17:37:57;;;;;;;14.48;5.70;;;8.00;99.90;;;;;;5016853;28;20045;-94
2023/12/31 17:40:32;;;;;;;15.63;5.05;;;9.50;99.90;;;;;;5017336;28;20045;-93
2023/12/31 17:42:58;;;;;;;20.87;9.67;;;9.20;99.90;;;;;;5018235;28;20049;-93
2023/12/31 17:45:29;;;;;;;19.95;7.53;;;8.50;99.90;;;;;;5015752;28;20519;-89
2023/12/31 17:56:50;;;;;;;19.33;6.90;;;7.80;99.90;;;;;;1428657;23;20330;-92
2023/12/31 18:00:07;;;;;;;17.70;6.20;;;7.30;99.90;;;;;;4976687;28;20065;-96
2023/12/31 18:11:09;;;;;;;14.57;6.23;;;8.00;99.90;;;;;;5032468;23;20053;-86
2023/12/31 18:23:37;;;;;;;14.40;4.83;;;7.30;99.90;;;;;;5027983;28;20052;-92
2023/12/31 18:41:04;;;;;;;15.40;3.87;;;8.10;99.90;;;;;;5007379;28;20134;-91
2023/12/31 18:44:13;;;;;;;14.33;4.63;;;7.60;99.90;;;;;;4986117;28;20046;-91
2023/12/31 18:49:15;;;;;;;15.83;4.33;;;8.00;99.90;;;;;;5242566;23;20053;-92
2023/12/31 18:52:17;;;;;;;14.97;4.53;;;8.00;99.90;;;;;;5023253;28;20064;-92
2023/12/31 18:55:11;;;;;;;17.38;6.10;;;8.00;99.90;;;;;;5023248;28;20051;-92
2023/12/31 18:58:03;;;;;;;19.70;5.90;;;7.50;99.90;;;;;;5025026;28;20037;-92
2023/12/31 19:07:24;;;;;;;18.30;5.37;;;8.70;99.90;;;;;;4969378;29;20035;-92
2023/12/31 19:09:59;;;;;;;15.23;5.17;;;7.20;99.90;;;;;;4946421;29;20156;-91
2023/12/31 19:13:03;;;;;;;15.97;6.13;;;7.90;99.90;;;;;;4954569;29;20048;-91
2023/12/31 19:15:47;;;;;;;26.58;14.27;;;8.00;99.90;;;;;;4925975;29;20051;-91
2023/12/31 19:18:19;;;;;;;14.55;4.53;;;8.00;99.90;;;;;;4932418;29;20500;-92
2023/12/31 19:20:48;;;;;;;14.50;4.57;;;9.50;99.90;;;;;;4936527;29;20045;-91
2023/12/31 19:46:48;;;;;;;23.03;9.33;;;7.80;99.90;;;;;;4906088;29;20047;-92
2023/12/31 19:53:44;;;;;;;;;;;;;;;;;;;;;
2023/12/31 19:57:12;;;;;;;16.30;6.30;;;8.70;99.90;;;;;;4875125;29;20228;-95
2023/12/31 20:37:31;;;;;;;;;;;;;;;;;;;;;
2023/12/31 20:40:43;;;;;;;15.63;4.73;;;7.70;99.90;;;;;;4891048;29;20057;-96
2023/12/31 20:43:24;;;;;;;21.00;5.30;;;7.00;99.90;;;;;;4883687;29;20056;-96
2023/12/31 20:46:05;;;;;;;15.13;4.80;;;7.70;99.90;;;;;;4898321;29;20139;-96
2023/12/31 20:48:31;;;;;;;17.00;4.50;;;7.70;99.90;;;;;;5860701;23;20103;-96
2023/12/31 20:57:16;;;;;;;14.07;4.27;;;7.70;99.90;;;;;;5234852;23;20058;-95
2023/12/31 21:00:49;;;;;;;16.10;4.65;;;7.70;99.90;;;;;;4991679;28;20061;-96
2023/12/31 21:03:21;;;;;;;17.30;4.60;;;6.80;99.90;;;;;;5008933;28;20151;-95
2023/12/31 21:09:08;;;;;;;17.70;5.23;;;6.70;99.90;;;;;;5012799;28;20132;-95
2023/12/31 21:15:59;;;;;;;11.25;4.00;;;7.90;99.90;;;;;;4956780;23;20073;-96
2023/12/31 21:19:33;;;;;;;17.13;6.55;;;7.90;99.90;;;;;;4900923;29;20063;-96
2023/12/31 23:59:34;;;;;;;24.38;11.88;;;7.60;99.90;;;;;;5716064;23;20078;-94
